Time;durP1;ratioP1;P1;durP2;ratioP2;P2;SDS_P1;SDS_P2;PMS_P1;PMS_P2;Temp;Humidity;BMP_temperature;BMP_pressure;BME280_temperature;BME280_humidity;BME280_pressure;Samples;Min_cycle;Max_cycle;Signal;HPM_P1;HPM_P2
2021/12/11 00:01:47;;;;;;;;;;;1.40;99.90;;;;;;5023987;28;19925;-69
2021/12/11 00:04:16;;;;;;;;;;;1.40;99.90;;;;;;5023066;28;20267;-68
2021/12/11 00:06:44;;;;;;;;;;;1.40;99.90;;;;;;5038780;28;19921;-69
2021/12/11 00:09:12;;;;;;;;;;;1.40;99.90;;;;;;5043252;28;19921;-69
2021/12/11 00:11:41;;;;;;;;;;;1.40;99.90;;;;;;5043420;28;20116;-69
2021/12/11 00:14:09;;;;;;;;;;;1.50;99.90;;;;;;5041906;28;19921;-68
2021/12/11 00:16:38;;;;;;;;;;;1.50;99.90;;;;;;5043099;28;19921;-69
2021/12/11 00:19:06;;;;;;;;;;;1.50;99.90;;;;;;5033664;28;20228;-69
2021/12/11 00:21:33;;;;;;;;;;;1.50;99.90;;;;;;5023524;28;19921;-69
2021/12/11 00:24:01;;;;;;;;;;;1.50;99.90;;;;;;5023006;28;19922;-68
2021/12/11 00:26:29;;;;;;;;;;;1.50;99.90;;;;;;5022948;28;19928;-68
2021/12/11 00:28:56;;;;;;;;;;;1.50;99.90;;;;;;5038213;28;19928;-68
2021/12/11 00:31:23;;;;;;;;;;;1.50;99.90;;;;;;5039911;28;19968;-68
2021/12/11 00:33:51;;;;;;;;;;;1.50;99.90;;;;;;5023005;28;19921;-69
2021/12/11 00:36:21;;;;;;;;;;;1.50;99.90;;;;;;5023640;28;20116;-68
2021/12/11 00:38:50;;;;;;;;;;;1.50;99.90;;;;;;5023121;28;19928;-69
2021/12/11 00:41:18;;;;;;;;;;;1.50;99.90;;;;;;5042522;28;19922;-68
2021/12/11 00:43:45;;;;;;;;;;;1.50;99.90;;;;;;5042810;28;20215;-68
2021/12/11 00:46:13;;;;;;;;;;;1.50;99.90;;;;;;5042878;28;19921;-69
2021/12/11 00:48:40;;;;;;;;;;;1.50;99.90;;;;;;5042858;28;19924;-68
2021/12/11 00:51:11;;;;;;;;;;;1.50;99.90;;;;;;5043028;28;19925;-68
2021/12/11 00:53:39;;;;;;;;;;;1.50;99.90;;;;;;5042426;28;19929;-71
2021/12/11 00:56:08;;;;;;;;;;;1.50;99.90;;;;;;5042231;28;19927;-68
2021/12/11 00:58:36;;;;;;;;;;;1.50;99.90;;;;;;5046364;28;19928;-68
2021/12/11 01:01:08;;;;;;;;;;;1.50;99.90;;;;;;5046623;28;19920;-69
2021/12/11 01:03:36;;;;;;;;;;;1.50;99.90;;;;;;5046179;28;19921;-68
2021/12/11 01:06:07;;;;;;;;;;;1.50;99.90;;;;;;5055120;28;19920;-68
2021/12/11 01:08:37;;;;;;;;;;;1.50;99.90;;;;;;5066180;28;19920;-68
2021/12/11 01:11:07;;;;;;;;;;;1.40;99.90;;;;;;5066226;28;19920;-68
2021/12/11 01:13:35;;;;;;;;;;;1.40;99.90;;;;;;5057876;28;20107;-68
2021/12/11 01:16:06;;;;;;;;;;;1.40;99.90;;;;;;5036769;28;19921;-68
2021/12/11 01:18:39;;;;;;;;;;;1.40;99.90;;;;;;5026634;28;19921;-70
2021/12/11 01:21:24;;;;;;;;;;;1.40;99.90;;;;;;5039333;28;19928;-68
2021/12/11 01:24:09;;;;;;;;;;;1.40;99.90;;;;;;5045444;28;19921;-68
2021/12/11 01:26:37;;;;;;;;;;;1.40;99.90;;;;;;5045829;28;19921;-69
2021/12/11 01:29:04;;;;;;;;;;;1.40;99.90;;;;;;5045498;28;20234;-69
2021/12/11 01:31:31;;;;;;;;;;;1.40;99.90;;;;;;5045720;28;19921;-69
2021/12/11 01:33:57;;;;;;;;;;;1.40;99.90;;;;;;5045285;28;19921;-69
2021/12/11 01:36:24;;;;;;;;;;;1.40;99.90;;;;;;5045518;28;19929;-69
2021/12/11 01:38:55;;;;;;;;;;;1.40;99.90;;;;;;5040264;28;19929;-68
2021/12/11 01:41:22;;;;;;;;;;;1.40;99.90;;;;;;5026080;28;19930;-69
2021/12/11 01:43:50;;;;;;;;;;;1.40;99.90;;;;;;5041458;28;19949;-69
2021/12/11 01:46:19;;;;;;;;;;;1.40;99.90;;;;;;5045312;28;19927;-69
2021/12/11 01:48:47;;;;;;;;;;;1.40;99.90;;;;;;5044079;28;19927;-69
2021/12/11 01:51:17;;;;;;;;;;;1.40;99.90;;;;;;5026016;28;19921;-69
2021/12/11 01:53:47;;;;;;;;;;;1.40;99.90;;;;;;5036931;28;19960;-69
2021/12/11 01:56:16;;;;;;;;;;;1.30;99.90;;;;;;5044746;28;19928;-69
2021/12/11 01:58:44;;;;;;;;;;;1.40;99.90;;;;;;5040481;28;20089;-69
2021/12/11 02:01:13;;;;;;;;;;;1.40;99.90;;;;;;5025705;28;19922;-69
2021/12/11 02:03:39;;;;;;;;;;;1.40;99.90;;;;;;5025061;28;19928;-69
2021/12/11 02:06:07;;;;;;;;;;;1.40;99.90;;;;;;5025136;28;19921;-68
2021/12/11 02:08:35;;;;;;;;;;;1.40;99.90;;;;;;5034315;28;19921;-69
2021/12/11 02:11:05;;;;;;;;;;;1.30;99.90;;;;;;5045618;28;20119;-69
2021/12/11 02:13:40;;;;;;;;;;;1.30;99.90;;;;;;5044715;28;19921;-68
2021/12/11 02:16:07;;;;;;;;;;;1.30;99.90;;;;;;5044655;28;20151;-69
2021/12/11 02:18:43;;;;;;;;;;;1.30;99.90;;;;;;5045104;28;19928;-68
2021/12/11 02:21:11;;;;;;;;;;;1.30;99.90;;;;;;5045366;28;19959;-68
2021/12/11 02:23:39;;;;;;;;;;;1.30;99.90;;;;;;5044936;28;19992;-69
2021/12/11 02:26:10;;;;;;;;;;;1.30;99.90;;;;;;5044737;28;19988;-68
2021/12/11 02:28:39;;;;;;;;;;;1.30;99.90;;;;;;5044813;28;19929;-69
2021/12/11 02:31:08;;;;;;;;;;;1.30;99.90;;;;;;5045031;28;19921;-68
2021/12/11 02:33:36;;;;;;;;;;;1.30;99.90;;;;;;5044603;28;19921;-69
2021/12/11 02:36:10;;;;;;;;;;;1.30;99.90;;;;;;5043717;28;19928;-69
2021/12/11 02:38:38;;;;;;;;;;;1.30;99.90;;;;;;5044945;28;19933;-69
2021/12/11 02:41:11;;;;;;;;;;;1.30;99.90;;;;;;5044876;28;19921;-69
2021/12/11 02:43:40;;;;;;;;;;;1.30;99.90;;;;;;5044578;28;19921;-69
2021/12/11 02:46:10;;;;;;;;;;;1.30;99.90;;;;;;5044339;28;19928;-69
2021/12/11 02:48:38;;;;;;;;;;;1.30;99.90;;;;;;5039066;28;19921;-69
2021/12/11 02:51:10;;;;;;;;;;;1.30;99.90;;;;;;5032183;28;20109;-69
2021/12/11 02:53:39;;;;;;;;;;;1.30;99.90;;;;;;5043920;28;19984;-68
2021/12/11 02:56:10;;;;;;;;;;;1.20;99.90;;;;;;5043806;28;19936;-69
2021/12/11 02:58:39;;;;;;;;;;;1.20;99.90;;;;;;5038919;28;19928;-69
2021/12/11 03:01:08;;;;;;;;;;;1.20;99.90;;;;;;5024688;28;20128;-69
2021/12/11 03:03:38;;;;;;;;;;;1.20;99.90;;;;;;5023498;28;19921;-69
2021/12/11 03:06:10;;;;;;;;;;;1.20;99.90;;;;;;5024145;28;19925;-69
2021/12/11 03:08:37;;;;;;;;;;;1.20;99.90;;;;;;5023720;28;19921;-69
2021/12/11 03:11:05;;;;;;;;;;;1.20;99.90;;;;;;5044194;28;19921;-69
2021/12/11 03:13:34;;;;;;;;;;;1.20;99.90;;;;;;5043803;28;19921;-69
2021/12/11 03:16:01;;;;;;;;;;;1.20;99.90;;;;;;5043132;28;19921;-68
2021/12/11 03:18:28;;;;;;;;;;;1.30;99.90;;;;;;5043678;28;19945;-68
2021/12/11 03:20:54;;;;;;;;;;;1.30;99.90;;;;;;5043046;28;20208;-68
2021/12/11 03:23:21;;;;;;;;;;;1.30;99.90;;;;;;5043903;28;19921;-69
2021/12/11 03:25:48;;;;;;;;;;;1.30;99.90;;;;;;5042708;28;19921;-69
2021/12/11 03:28:16;;;;;;;;;;;1.30;99.90;;;;;;5043965;28;19927;-69
2021/12/11 03:30:45;;;;;;;;;;;1.30;99.90;;;;;;5043839;28;19927;-69
2021/12/11 03:33:13;;;;;;;;;;;1.30;99.90;;;;;;5043787;28;20226;-69
2021/12/11 03:35:40;;;;;;;;;;;1.30;99.90;;;;;;5042438;28;19921;-69
2021/12/11 03:38:07;;;;;;;;;;;1.20;99.90;;;;;;5043121;28;19921;-69
2021/12/11 03:40:34;;;;;;;;;;;1.30;99.90;;;;;;5039610;28;19924;-69
2021/12/11 03:43:01;;;;;;;;;;;1.30;99.90;;;;;;5043697;28;19921;-69
2021/12/11 03:45:30;;;;;;;;;;;1.30;99.90;;;;;;5042170;28;19928;-69
2021/12/11 03:48:01;;;;;;;;;;;1.40;99.90;;;;;;5043662;28;19925;-69
2021/12/11 03:50:29;;;;;;;;;;;1.40;99.90;;;;;;5043618;28;19921;-69
2021/12/11 03:52:56;;;;;;;;;;;1.40;99.90;;;;;;5043440;28;20242;-69
2021/12/11 03:55:24;;;;;;;;;;;1.40;99.90;;;;;;5041944;28;19928;-69
2021/12/11 03:57:57;;;;;;;;;;;1.30;99.90;;;;;;5043316;28;19921;-68
2021/12/11 04:00:25;;;;;;;;;;;1.30;99.90;;;;;;5043060;28;20116;-69
2021/12/11 04:02:56;;;;;;;;;;;1.30;99.90;;;;;;5043511;28;19996;-69
2021/12/11 04:05:24;;;;;;;;;;;1.30;99.90;;;;;;5042248;28;20188;-68
2021/12/11 04:07:51;;;;;;;;;;;1.30;99.90;;;;;;5043262;28;20235;-69
2021/12/11 04:10:20;;;;;;;;;;;1.30;99.90;;;;;;5043556;28;19922;-69
2021/12/11 04:12:48;;;;;;;;;;;1.30;99.90;;;;;;5043507;28;19921;-68
2021/12/11 04:15:15;;;;;;;;;;;1.30;99.90;;;;;;5042886;28;19921;-68
2021/12/11 04:17:42;;;;;;;;;;;1.30;99.90;;;;;;5043169;28;19944;-69
2021/12/11 04:20:10;;;;;;;;;;;1.30;99.90;;;;;;5042497;28;19988;-69
2021/12/11 04:22:38;;;;;;;;;;;1.30;99.90;;;;;;5061933;28;19928;-70
2021/12/11 04:25:05;;;;;;;;;;;1.20;99.90;;;;;;5062744;28;19921;-70
2021/12/11 04:27:32;;;;;;;;;;;1.20;99.90;;;;;;5063134;28;19920;-70
2021/12/11 04:29:59;;;;;;;;;;;1.30;99.90;;;;;;5046349;28;19921;-70
2021/12/11 04:32:28;;;;;;;;;;;1.20;99.90;;;;;;5046900;28;20116;-70
2021/12/11 04:34:55;;;;;;;;;;;1.30;99.90;;;;;;5046946;28;19991;-70
2021/12/11 04:37:24;;;;;;;;;;;1.20;99.90;;;;;;5047017;28;19921;-70
2021/12/11 04:39:58;;;;;;;;;;;1.20;99.90;;;;;;5047271;28;19936;-70
2021/12/11 04:42:36;;;;;;;;;;;1.10;99.90;;;;;;5047222;28;20086;-69
2021/12/11 04:45:04;;;;;;;;;;;1.10;99.90;;;;;;5046841;28;19928;-69
2021/12/11 04:47:35;;;;;;;;;;;1.20;99.90;;;;;;5047053;28;19984;-69
2021/12/11 04:50:08;;;;;;;;;;;1.10;99.90;;;;;;5046890;28;19929;-70
2021/12/11 04:52:45;;;;;;;;;;;1.00;99.90;;;;;;5046647;28;19971;-69
2021/12/11 04:55:27;;;;;;;;;;;1.10;99.90;;;;;;5046705;28;19928;-69
2021/12/11 04:58:05;;;;;;;;;;;1.00;99.90;;;;;;5046218;28;19921;-69
2021/12/11 05:00:44;;;;;;;;;;;1.10;99.90;;;;;;5046561;28;20205;-69
2021/12/11 05:03:35;;;;;;;;;;;1.10;99.90;;;;;;5046815;28;20235;-69
2021/12/11 05:06:24;;;;;;;;;;;1.10;99.90;;;;;;5046708;28;19921;-68
2021/12/11 05:11:40;;;;;;;;;;;1.10;99.90;;;;;;5046408;28;19939;-69
2021/12/11 05:14:08;;;;;;;;;;;1.10;99.90;;;;;;5045929;28;19992;-69
2021/12/11 05:16:34;;;;;;;;;;;1.20;99.90;;;;;;5046337;28;19921;-68
2021/12/11 05:19:01;;;;;;;;;;;1.10;99.90;;;;;;5049243;28;19921;-68
2021/12/11 05:21:28;;;;;;;;;;;1.20;99.90;;;;;;5066355;28;19927;-69
2021/12/11 05:23:54;;;;;;;;;;;1.20;99.90;;;;;;5065871;28;20230;-69
2021/12/11 05:26:21;;;;;;;;;;;1.10;99.90;;;;;;5065994;28;20117;-69
2021/12/11 05:28:50;;;;;;;;;;;1.10;99.90;;;;;;5052500;28;19922;-69
2021/12/11 05:31:16;;;;;;;;;;;1.20;99.90;;;;;;5026203;28;19928;-69
2021/12/11 05:33:43;;;;;;;;;;;1.20;99.90;;;;;;5026146;28;19921;-69
2021/12/11 05:36:12;;;;;;;;;;;1.20;99.90;;;;;;5026172;28;20116;-69
2021/12/11 05:38:39;;;;;;;;;;;1.20;99.90;;;;;;5033756;28;19921;-69
2021/12/11 05:41:08;;;;;;;;;;;1.20;99.90;;;;;;5045751;28;19975;-68
2021/12/11 05:43:35;;;;;;;;;;;1.10;99.90;;;;;;5044479;28;19924;-69
2021/12/11 05:46:03;;;;;;;;;;;1.10;99.90;;;;;;5045347;28;19921;-69
2021/12/11 05:48:30;;;;;;;;;;;1.20;99.90;;;;;;5045090;28;20101;-68
2021/12/11 05:51:00;;;;;;;;;;;1.20;99.90;;;;;;5026466;28;20209;-68
2021/12/11 05:53:28;;;;;;;;;;;1.20;99.90;;;;;;5034383;28;20116;-68
2021/12/11 05:55:56;;;;;;;;;;;1.20;99.90;;;;;;5045723;28;19921;-68
2021/12/11 05:58:35;;;;;;;;;;;1.20;99.90;;;;;;5072773;23;19952;-71
2021/12/11 06:01:05;;;;;;;;;;;1.20;99.90;;;;;;5084937;28;19929;-72
2021/12/11 06:03:31;;;;;;;;;;;1.20;99.90;;;;;;5085057;28;20203;-70
2021/12/11 06:05:59;;;;;;;;;;;1.20;99.90;;;;;;5084029;28;19920;-71
2021/12/11 06:08:25;;;;;;;;;;;1.10;99.90;;;;;;5085359;28;19930;-71
2021/12/11 06:10:52;;;;;;;;;;;1.10;99.90;;;;;;5084556;28;19924;-71
2021/12/11 06:13:19;;;;;;;;;;;1.10;99.90;;;;;;5084931;28;20212;-70
2021/12/11 06:15:45;;;;;;;;;;;1.10;99.90;;;;;;5084902;28;19927;-70
2021/12/11 06:18:18;;;;;;;;;;;1.10;99.90;;;;;;5085064;28;19961;-71
2021/12/11 06:20:44;;;;;;;;;;;1.10;99.90;;;;;;5085013;28;19924;-71
2021/12/11 06:23:11;;;;;;;;;;;1.10;99.90;;;;;;5081016;28;19920;-70
2021/12/11 06:25:39;;;;;;;;;;;1.10;99.90;;;;;;5064784;28;19927;-71
2021/12/11 06:28:06;;;;;;;;;;;1.10;99.90;;;;;;5064677;28;19925;-70
2021/12/11 06:30:33;;;;;;;;;;;1.10;99.90;;;;;;5064792;28;19922;-69
2021/12/11 06:33:00;;;;;;;;;;;1.10;99.90;;;;;;5064838;28;19921;-71
2021/12/11 06:35:31;;;;;;;;;;;1.10;99.90;;;;;;5064647;28;19921;-70
2021/12/11 06:37:58;;;;;;;;;;;1.20;99.90;;;;;;5064430;28;19921;-71
2021/12/11 06:40:25;;;;;;;;;;;1.20;99.90;;;;;;5064626;28;19993;-70
2021/12/11 06:42:52;;;;;;;;;;;1.20;99.90;;;;;;5064402;28;19920;-70
2021/12/11 06:45:19;;;;;;;;;;;1.20;99.90;;;;;;5065488;28;19921;-70
2021/12/11 06:47:46;;;;;;;;;;;1.20;99.90;;;;;;5084144;28;20207;-71
2021/12/11 06:50:13;;;;;;;;;;;1.20;99.90;;;;;;5084349;28;19992;-70
2021/12/11 06:52:41;;;;;;;;;;;1.20;99.90;;;;;;5084511;28;19920;-71
2021/12/11 06:55:08;;;;;;;;;;;1.20;99.90;;;;;;5083056;28;19920;-70
2021/12/11 06:57:34;;;;;;;;;;;1.20;99.90;;;;;;5083906;28;19921;-70
2021/12/11 07:00:01;;;;;;;;;;;1.20;99.90;;;;;;5084193;28;19921;-70
2021/12/11 07:02:28;;;;;;;;;;;1.10;99.90;;;;;;5084331;28;19927;-70
2021/12/11 07:04:55;;;;;;;;;;;1.20;99.90;;;;;;5084183;28;19927;-70
2021/12/11 07:07:25;;;;;;;;;;;1.10;99.90;;;;;;5084158;28;19925;-70
2021/12/11 07:09:54;;;;;;;;;;;1.10;99.90;;;;;;5083879;28;19966;-70
2021/12/11 07:12:21;;;;;;;;;;;1.10;99.90;;;;;;5084248;28;19920;-70
2021/12/11 07:14:48;;;;;;;;;;;1.20;99.90;;;;;;5083673;28;19920;-70
2021/12/11 07:17:15;;;;;;;;;;;1.10;99.90;;;;;;5084106;28;19926;-69
2021/12/11 07:19:42;;;;;;;;;;;1.10;99.90;;;;;;5084111;28;19924;-70
2021/12/11 07:22:08;;;;;;;;;;;1.10;99.90;;;;;;5084326;28;19921;-71
2021/12/11 07:24:37;;;;;;;;;;;1.10;99.90;;;;;;5084204;28;19927;-70
2021/12/11 07:27:07;;;;;;;;;;;1.10;99.90;;;;;;5083911;28;19920;-70
2021/12/11 07:29:34;;;;;;;;;;;1.10;99.90;;;;;;5083524;28;19987;-70
2021/12/11 07:32:01;;;;;;;;;;;1.10;99.90;;;;;;5083546;28;19921;-70
2021/12/11 07:34:28;;;;;;;;;;;1.10;99.90;;;;;;5082896;28;19921;-68
2021/12/11 07:36:55;;;;;;;;;;;1.20;99.90;;;;;;5080549;28;19920;-71
2021/12/11 07:39:22;;;;;;;;;;;1.20;99.90;;;;;;5083266;28;19928;-71
2021/12/11 07:41:50;;;;;;;;;;;1.20;99.90;;;;;;5083889;28;19920;-72
2021/12/11 07:44:18;;;;;;;;;;;1.20;99.90;;;;;;5081504;28;19928;-72
2021/12/11 07:46:44;;;;;;;;;;;1.20;99.90;;;;;;5074397;28;19921;-71
2021/12/11 07:49:11;;;;;;;;;;;1.20;99.90;;;;;;5083321;28;19920;-72
2021/12/11 07:51:38;;;;;;;;;;;1.20;99.90;;;;;;5083555;28;19927;-71
2021/12/11 07:54:05;;;;;;;;;;;1.20;99.90;;;;;;5082828;28;20208;-71
2021/12/11 07:56:32;;;;;;;;;;;1.20;99.90;;;;;;5083622;28;19924;-71
2021/12/11 07:59:00;;;;;;;;;;;1.10;99.90;;;;;;5074217;28;19920;-71
2021/12/11 08:01:29;;;;;;;;;;;1.10;99.90;;;;;;5078797;28;19951;-70
2021/12/11 08:03:59;;;;;;;;;;;1.10;99.90;;;;;;5081541;28;20307;-71
2021/12/11 08:06:26;;;;;;;;;;;1.10;99.90;;;;;;5080787;28;19924;-70
2021/12/11 08:08:53;;;;;;;;;;;1.10;99.90;;;;;;5082548;28;19920;-71
2021/12/11 08:11:20;;;;;;;;;;;1.10;99.90;;;;;;5082910;28;19927;-71
2021/12/11 08:13:48;;;;;;;;;;;1.10;99.90;;;;;;5082929;28;19927;-68
2021/12/11 08:16:18;;;;;;;;;;;1.20;99.90;;;;;;5082996;28;19920;-72
2021/12/11 08:18:46;;;;;;;;;;;1.20;99.90;;;;;;5081952;28;19966;-73
2021/12/11 08:21:13;;;;;;;;;;;1.20;99.90;;;;;;5083479;28;19920;-72
2021/12/11 08:23:44;;;;;;;;;;;1.20;99.90;;;;;;5082906;28;20227;-69
2021/12/11 08:26:11;;;;;;;;;;;1.20;99.90;;;;;;5083202;28;20143;-69
2021/12/11 08:28:38;;;;;;;;;;;1.20;99.90;;;;;;5083146;28;19948;-70
2021/12/11 08:31:05;;;;;;;;;;;1.20;99.90;;;;;;5081450;28;20089;-70
2021/12/11 08:33:31;;;;;;;;;;;1.20;99.90;;;;;;5082915;28;19920;-71
2021/12/11 08:36:00;;;;;;;;;;;1.20;99.90;;;;;;5082855;28;20263;-72
2021/12/11 08:38:27;;;;;;;;;;;1.30;99.90;;;;;;5082850;28;19952;-72
2021/12/11 08:40:55;;;;;;;;;;;1.30;99.90;;;;;;5063468;28;19925;-71
2021/12/11 08:43:22;;;;;;;;;;;1.30;99.90;;;;;;5064014;28;19921;-72
2021/12/11 08:46:00;;;;;;;;;;;1.30;99.90;;;;;;5081904;28;20176;-69
2021/12/11 08:48:27;;;;;;;;;;;1.30;99.90;;;;;;5082689;28;19921;-71
2021/12/11 08:51:01;;;;;;;;;;;1.30;99.90;;;;;;5081856;28;19920;-71
2021/12/11 08:53:29;;;;;;;;;;;1.30;99.90;;;;;;5079656;28;19920;-71
2021/12/11 08:55:55;;;;;;;;;;;1.30;99.90;;;;;;5082937;28;19987;-70
2021/12/11 08:58:23;;;;;;;;;;;1.30;99.90;;;;;;5081814;28;19927;-71
2021/12/11 09:00:51;;;;;;;;;;;1.30;99.90;;;;;;5082563;28;19931;-68
2021/12/11 09:03:20;;;;;;;;;;;1.30;99.90;;;;;;5082829;28;20164;-68
2021/12/11 09:05:48;;;;;;;;;;;1.30;99.90;;;;;;5082620;28;19920;-73
2021/12/11 09:08:21;;;;;;;;;;;1.30;99.90;;;;;;5082812;28;19927;-72
2021/12/11 09:10:52;;;;;;;;;;;1.30;99.90;;;;;;5064394;28;19921;-72
2021/12/11 09:13:20;;;;;;;;;;;1.30;99.90;;;;;;5062562;28;20209;-73
2021/12/11 09:15:48;;;;;;;;;;;1.30;99.90;;;;;;5062725;28;19920;-73
2021/12/11 09:18:20;;;;;;;;;;;1.40;99.90;;;;;;5064582;28;19921;-73
2021/12/11 09:20:49;;;;;;;;;;;1.40;99.90;;;;;;5079566;28;19963;-72
2021/12/11 09:23:19;;;;;;;;;;;1.40;99.90;;;;;;5086451;28;19927;-72
2021/12/11 09:25:47;;;;;;;;;;;1.40;99.90;;;;;;5085951;28;19927;-72
2021/12/11 09:28:17;;;;;;;;;;;1.40;99.90;;;;;;5086212;28;19927;-71
2021/12/11 09:30:48;;;;;;;;;;;1.50;99.90;;;;;;5086014;28;19921;-69
2021/12/11 09:33:16;;;;;;;;;;;1.50;99.90;;;;;;5085955;28;19921;-72
2021/12/11 09:35:48;;;;;;;;;;;1.40;99.90;;;;;;5085993;28;19920;-72
2021/12/11 09:38:16;;;;;;;;;;;1.50;99.90;;;;;;5085949;28;19924;-71
2021/12/11 09:40:58;;;;;;;;;;;1.40;99.90;;;;;;5075740;28;20107;-71
2021/12/11 09:43:31;;;;;;;;;;;1.40;99.90;;;;;;5065619;28;20208;-71
2021/12/11 09:45:58;;;;;;;;;;;1.50;99.90;;;;;;5066101;28;19921;-71
2021/12/11 09:48:25;;;;;;;;;;;1.50;99.90;;;;;;5065590;28;20220;-71
2021/12/11 09:50:57;;;;;;;;;;;1.50;99.90;;;;;;5066089;28;20111;-71
2021/12/11 09:53:25;;;;;;;;;;;1.50;99.90;;;;;;5081084;28;19958;-71
2021/12/11 09:55:52;;;;;;;;;;;1.50;99.90;;;;;;5085485;28;19920;-71
2021/12/11 09:58:20;;;;;;;;;;;1.60;99.90;;;;;;5085397;28;20253;-72
2021/12/11 10:00:49;;;;;;;;;;;1.60;99.90;;;;;;5085379;28;19920;-72
2021/12/11 10:03:17;;;;;;;;;;;1.60;99.90;;;;;;5085426;28;19943;-72
2021/12/11 10:05:49;;;;;;;;;;;1.60;99.90;;;;;;5084361;28;19983;-73
2021/12/11 10:08:28;;;;;;;;;;;1.60;99.90;;;;;;5085641;28;19932;-72
2021/12/11 10:11:03;;;;;;;;;;;1.60;99.90;;;;;;5083357;28;20012;-72
2021/12/11 10:13:30;;;;;;;;;;;1.60;99.90;;;;;;5085335;28;19943;-70
2021/12/11 10:16:00;;;;;;;;;;;1.50;99.90;;;;;;5085578;28;20137;-74
2021/12/11 10:18:27;;;;;;;;;;;1.60;99.90;;;;;;5085391;28;19928;-72
2021/12/11 10:20:58;;;;;;;;;;;1.60;99.90;;;;;;5090696;28;19920;-72
2021/12/11 10:23:26;;;;;;;;;;;1.60;99.90;;;;;;5087176;28;19927;-72
2021/12/11 10:25:53;;;;;;;;;;;1.60;99.90;;;;;;5085180;28;19926;-72
2021/12/11 10:28:23;;;;;;;;;;;1.70;99.90;;;;;;5084404;28;20267;-71
2021/12/11 10:30:51;;;;;;;;;;;1.70;99.90;;;;;;5083725;28;19952;-71
2021/12/11 10:33:21;;;;;;;;;;;1.70;99.90;;;;;;5085122;28;19946;-69
2021/12/11 10:35:50;;;;;;;;;;;1.70;99.90;;;;;;5084884;28;19926;-66
2021/12/11 10:38:17;;;;;;;;;;;1.70;99.90;;;;;;5084889;28;20152;-69
2021/12/11 10:40:46;;;;;;;;;;;1.70;99.90;;;;;;5066189;28;19921;-69
2021/12/11 10:43:14;;;;;;;;;;;1.70;99.90;;;;;;5064637;28;19920;-69
2021/12/11 10:45:42;;;;;;;;;;;1.70;99.90;;;;;;5063157;28;19940;-72
2021/12/11 10:48:10;;;;;;;;;;;1.70;99.90;;;;;;5064609;28;20089;-72
2021/12/11 10:50:40;;;;;;;;;;;1.80;99.90;;;;;;5063963;28;20228;-71
2021/12/11 10:53:09;;;;;;;;;;;1.70;99.90;;;;;;5077145;28;19921;-72
2021/12/11 10:55:36;;;;;;;;;;;1.70;99.90;;;;;;5084217;28;19921;-71
2021/12/11 10:58:06;;;;;;;;;;;1.70;99.90;;;;;;5083261;28;19920;-71
2021/12/11 11:00:35;;;;;;;;;;;1.80;99.90;;;;;;5083766;28;19956;-70
2021/12/11 11:03:02;;;;;;;;;;;1.80;99.90;;;;;;5083918;28;19924;-71
2021/12/11 11:05:30;;;;;;;;;;;1.80;99.90;;;;;;5084188;28;19925;-72
2021/12/11 11:07:58;;;;;;;;;;;1.80;99.90;;;;;;5084129;28;20353;-71
2021/12/11 11:10:27;;;;;;;;;;;1.80;99.90;;;;;;5068718;28;20142;-70
2021/12/11 11:12:54;;;;;;;;;;;1.80;99.90;;;;;;5063828;28;20116;-72
2021/12/11 11:15:21;;;;;;;;;;;1.80;99.90;;;;;;5064013;28;19921;-71
2021/12/11 11:17:49;;;;;;;;;;;1.90;99.90;;;;;;5063775;28;19962;-72
2021/12/11 11:20:18;;;;;;;;;;;1.90;99.90;;;;;;5064094;28;19921;-71
2021/12/11 11:22:45;;;;;;;;;;;2.00;99.90;;;;;;5075341;28;19920;-72
2021/12/11 11:25:15;;;;;;;;;;;2.00;99.90;;;;;;5083827;28;20163;-72
2021/12/11 11:27:43;;;;;;;;;;;2.10;99.90;;;;;;5083491;28;19924;-69
2021/12/11 11:30:13;;;;;;;;;;;2.10;99.90;;;;;;5082393;28;19920;-69
2021/12/11 11:32:40;;;;;;;;;;;2.10;99.90;;;;;;5083799;28;19927;-69
2021/12/11 11:35:09;;;;;;;;;;;2.10;99.90;;;;;;5083614;28;19927;-72
2021/12/11 11:37:36;;;;;;;;;;;2.20;99.90;;;;;;5083437;28;20242;-70
2021/12/11 11:40:04;;;;;;;;;;;2.20;99.90;;;;;;5082649;28;20146;-72
2021/12/11 11:42:33;;;;;;;;;;;2.10;99.90;;;;;;5083730;28;20081;-72
2021/12/11 11:45:00;;;;;;;;;;;2.10;99.90;;;;;;5076058;28;19920;-72
2021/12/11 11:47:26;;;;;;;;;;;2.10;99.90;;;;;;5062375;28;19984;-71
2021/12/11 11:49:58;;;;;;;;;;;2.10;99.90;;;;;;5062354;28;19942;-72
2021/12/11 11:52:25;;;;;;;;;;;2.10;99.90;;;;;;5065017;28;19963;-71
2021/12/11 11:54:53;;;;;;;;;;;2.00;99.90;;;;;;5078226;28;20231;-72
2021/12/11 11:57:22;;;;;;;;;;;2.00;99.90;;;;;;5063537;28;19920;-72
2021/12/11 11:59:51;;;;;;;;;;;2.00;99.90;;;;;;5086361;23;20111;-75
2021/12/11 12:02:19;;;;;;;;;;;2.00;99.90;;;;;;5063924;28;19927;-75
2021/12/11 12:04:48;;;;;;;;;;;2.00;99.90;;;;;;5063382;28;19924;-77
2021/12/11 12:07:18;;;;;;;;;;;2.00;99.90;;;;;;5053171;28;19921;-76
2021/12/11 12:09:46;;;;;;;;;;;1.90;99.90;;;;;;5062824;28;19920;-76
2021/12/11 12:12:14;;;;;;;;;;;1.90;99.90;;;;;;5055764;28;19927;-76
2021/12/11 12:14:42;;;;;;;;;;;1.90;99.90;;;;;;5063535;28;19927;-76
2021/12/11 12:17:11;;;;;;;;;;;1.90;99.90;;;;;;5063836;28;19921;-76
2021/12/11 12:19:38;;;;;;;;;;;2.00;99.90;;;;;;5063690;28;20111;-75
2021/12/11 12:22:07;;;;;;;;;;;2.00;99.90;;;;;;5062325;28;19983;-75
2021/12/11 12:24:37;;;;;;;;;;;1.90;99.90;;;;;;5063369;28;19927;-75
2021/12/11 12:27:05;;;;;;;;;;;1.90;99.90;;;;;;5061967;28;19924;-76
2021/12/11 12:29:32;;;;;;;;;;;2.00;99.90;;;;;;5063264;28;19920;-76
2021/12/11 12:32:00;;;;;;;;;;;2.00;99.90;;;;;;5052753;28;19925;-75
2021/12/11 12:34:29;;;;;;;;;;;1.90;99.90;;;;;;5042593;28;19921;-75
2021/12/11 12:36:56;;;;;;;;;;;1.90;99.90;;;;;;5043572;28;19943;-75
2021/12/11 12:39:26;;;;;;;;;;;1.90;99.90;;;;;;5057663;28;20201;-75
2021/12/11 12:41:58;;;;;;;;;;;2.00;99.90;;;;;;5063452;28;19927;-75
2021/12/11 12:44:25;;;;;;;;;;;2.00;99.90;;;;;;5063019;28;19921;-75
2021/12/11 12:46:55;;;;;;;;;;;2.00;99.90;;;;;;5063300;28;19921;-75
2021/12/11 12:49:22;;;;;;;;;;;2.00;99.90;;;;;;5063506;28;19921;-75
2021/12/11 12:51:51;;;;;;;;;;;1.90;99.90;;;;;;5046389;28;19921;-75
2021/12/11 12:54:19;;;;;;;;;;;1.90;99.90;;;;;;5053560;28;19927;-75
2021/12/11 12:56:47;;;;;;;;;;;1.90;99.90;;;;;;5066905;28;19921;-75
2021/12/11 12:59:18;;;;;;;;;;;1.90;99.90;;;;;;5066693;28;19927;-75
2021/12/11 13:01:46;;;;;;;;;;;1.90;99.90;;;;;;5047211;28;19921;-75
2021/12/11 13:04:15;;;;;;;;;;;1.90;99.90;;;;;;5046547;28;19927;-75
2021/12/11 13:06:59;;;;;;;;;;;1.90;99.90;;;;;;5059941;28;20200;-75
2021/12/11 13:09:31;;;;;;;;;;;1.90;99.90;;;;;;5044976;28;20209;-75
2021/12/11 13:12:03;;;;;;;;;;;1.80;99.90;;;;;;5055584;28;19958;-73
2021/12/11 13:14:30;;;;;;;;;;;1.90;99.90;;;;;;5086528;28;19988;-75
2021/12/11 13:16:58;;;;;;;;;;;1.90;99.90;;;;;;5086761;28;19927;-74
2021/12/11 13:19:40;;;;;;;;;;;1.90;99.90;;;;;;5073554;28;20097;-75
2021/12/11 13:22:08;;;;;;;;;;;1.90;99.90;;;;;;5066506;28;20031;-75
2021/12/11 13:24:37;;;;;;;;;;;1.80;99.90;;;;;;5065813;28;19928;-75
2021/12/11 13:27:07;;;;;;;;;;;1.90;99.90;;;;;;5065770;28;19927;-75
2021/12/11 13:29:41;;;;;;;;;;;1.90;99.90;;;;;;5065002;28;19928;-73
2021/12/11 13:32:27;;;;;;;;;;;1.80;99.90;;;;;;5063654;28;19920;-75
2021/12/11 13:34:55;;;;;;;;;;;1.90;99.90;;;;;;5066124;28;20316;-75
2021/12/11 13:37:23;;;;;;;;;;;1.80;99.90;;;;;;5066419;28;19921;-74
2021/12/11 13:39:52;;;;;;;;;;;1.90;99.90;;;;;;5068352;28;19920;-75
2021/12/11 13:42:20;;;;;;;;;;;1.90;99.90;;;;;;5086061;28;20151;-75
2021/12/11 13:44:49;;;;;;;;;;;1.90;99.90;;;;;;5080685;28;19920;-74
2021/12/11 13:47:17;;;;;;;;;;;1.80;99.90;;;;;;5066297;28;19928;-72
2021/12/11 13:49:44;;;;;;;;;;;1.80;99.90;;;;;;5066314;28;19920;-75
2021/12/11 13:52:11;;;;;;;;;;;1.80;99.90;;;;;;5065413;28;19921;-74
2021/12/11 13:54:38;;;;;;;;;;;1.80;99.90;;;;;;5066443;28;20107;-75
2021/12/11 13:57:07;;;;;;;;;;;1.90;99.90;;;;;;5065178;28;20139;-74
2021/12/11 13:59:34;;;;;;;;;;;1.90;99.90;;;;;;5081224;28;19995;-74
2021/12/11 14:02:03;;;;;;;;;;;1.90;99.90;;;;;;5083647;28;20226;-75
2021/12/11 14:04:32;;;;;;;;;;;1.90;99.90;;;;;;5070590;28;19920;-74
2021/12/11 14:07:09;;;;;;;;;;;2.00;99.90;;;;;;5065772;28;19921;-75
2021/12/11 14:09:38;;;;;;;;;;;2.00;99.90;;;;;;5065361;28;19927;-74
2021/12/11 14:12:07;;;;;;;;;;;2.00;99.90;;;;;;5064853;28;20115;-75
2021/12/11 14:14:34;;;;;;;;;;;2.00;99.90;;;;;;5065220;28;19927;-75
2021/12/11 14:17:00;;;;;;;;;;;2.00;99.90;;;;;;5065566;28;20229;-75
2021/12/11 14:19:27;;;;;;;;;;;2.00;99.90;;;;;;5065541;28;19921;-75
2021/12/11 14:21:58;;;;;;;;;;;2.00;99.90;;;;;;5064777;28;19924;-75
2021/12/11 14:24:24;;;;;;;;;;;2.00;99.90;;;;;;5064856;28;19920;-75
2021/12/11 14:26:51;;;;;;;;;;;2.00;99.90;;;;;;5065377;28;19927;-75
2021/12/11 14:29:19;;;;;;;;;;;1.90;99.90;;;;;;5065130;28;19980;-74
2021/12/11 14:31:46;;;;;;;;;;;1.90;99.90;;;;;;5065040;28;19920;-75
2021/12/11 14:34:13;;;;;;;;;;;1.90;99.90;;;;;;5064450;28;19943;-74
2021/12/11 14:36:45;;;;;;;;;;;1.90;99.90;;;;;;5063661;28;19921;-74
2021/12/11 14:39:14;;;;;;;;;;;1.90;99.90;;;;;;5065044;28;19920;-75
2021/12/11 14:41:42;;;;;;;;;;;2.00;99.90;;;;;;5064874;28;20283;-75
2021/12/11 14:44:11;;;;;;;;;;;2.00;99.90;;;;;;5063760;28;19956;-74